createdAt,value
2022-10-17T00:00:09.629Z,72.04
2022-10-17T00:02:37.905Z,71.45
2022-10-17T00:05:05.177Z,71.33
2022-10-17T00:07:31.889Z,71.56
2022-10-17T00:09:58.404Z,71.94
2022-10-17T00:12:25.117Z,71.38
2022-10-17T00:14:51.723Z,71.43
2022-10-17T00:17:18.295Z,71.51
2022-10-17T00:19:47.619Z,71.41
2022-10-17T00:22:14.283Z,71.25
2022-10-17T00:24:40.829Z,71.96
2022-10-17T00:27:07.884Z,71.04
2022-10-17T00:29:34.861Z,71.13
2022-10-17T00:32:01.406Z,71.51
2022-10-17T00:34:29.889Z,71.20
2022-10-17T00:36:58.422Z,71.51
2022-10-17T00:39:25.072Z,71.20
2022-10-17T00:41:51.726Z,71.05
2022-10-17T00:44:58.745Z,71.29
2022-10-17T00:47:25.861Z,70.58
2022-10-17T00:49:52.652Z,70.47
2022-10-17T00:52:24.020Z,69.94
2022-10-17T00:54:56.069Z,70.36
2022-10-17T00:57:23.231Z,71.50
2022-10-17T00:59:55.856Z,71.03
2022-10-17T01:02:23.712Z,70.78
2022-10-17T01:04:52.520Z,70.02
2022-10-17T01:07:19.068Z,70.86
2022-10-17T01:09:47.521Z,70.25
2022-10-17T01:12:20.314Z,69.93
2022-10-17T01:14:58.061Z,70.43
2022-10-17T01:17:33.837Z,70.56
2022-10-17T01:20:34.019Z,70.01
2022-10-17T01:23:18.639Z,70.39
2022-10-17T01:25:56.696Z,70.20
2022-10-17T01:28:44.503Z,70.61
2022-10-17T01:31:15.250Z,70.69
2022-10-17T01:33:52.651Z,70.90
2022-10-17T01:36:32.440Z,69.92
2022-10-17T01:39:03.056Z,70.42
2022-10-17T01:41:38.453Z,70.69
2022-10-17T01:44:11.796Z,70.25
2022-10-17T01:46:41.198Z,70.19
2022-10-17T01:49:10.141Z,69.94
2022-10-17T01:51:41.139Z,70.30
2022-10-17T01:54:14.177Z,70.11
2022-10-17T01:56:42.659Z,69.97
2022-10-17T01:59:13.641Z,69.94
2022-10-17T02:01:42.418Z,69.64
2022-10-17T02:04:11.072Z,69.27
2022-10-17T02:06:38.358Z,69.45
2022-10-17T02:09:17.235Z,69.95
2022-10-17T02:11:48.177Z,69.43
2022-10-17T02:14:25.581Z,70.05
2022-10-17T02:17:05.233Z,69.45
2022-10-17T02:19:41.724Z,69.55
2022-10-17T02:22:18.497Z,69.08
2022-10-17T02:24:49.877Z,68.95
2022-10-17T02:27:24.482Z,69.58
2022-10-17T02:29:57.366Z,68.84
2022-10-17T02:32:35.166Z,69.36
2022-10-17T02:35:03.661Z,69.73
2022-10-17T02:37:32.285Z,69.85
2022-10-17T02:40:02.275Z,69.57
2022-10-17T02:42:30.048Z,70.08
2022-10-17T02:45:00.195Z,69.39
2022-10-17T02:47:32.086Z,69.54
2022-10-17T02:49:59.079Z,70.08
2022-10-17T02:52:31.681Z,69.35
2022-10-17T02:55:05.037Z,69.43
2022-10-17T02:57:36.605Z,69.31
2022-10-17T03:00:08.779Z,69.86
2022-10-17T03:02:44.373Z,68.87
2022-10-17T03:05:12.927Z,68.87
2022-10-17T03:07:39.789Z,69.36
2022-10-17T03:10:07.465Z,68.97
2022-10-17T03:12:34.047Z,69.09
2022-10-17T03:15:00.559Z,69.81
2022-10-17T03:17:27.068Z,70.06
2022-10-17T03:19:55.164Z,69.58
2022-10-17T03:22:21.666Z,69.29
2022-10-17T03:24:48.397Z,70.10
2022-10-17T03:27:15.007Z,69.65
2022-10-17T03:29:41.592Z,69.31
2022-10-17T03:32:08.097Z,69.77
2022-10-17T03:34:34.947Z,70.11
2022-10-17T03:37:03.108Z,69.34
2022-10-17T03:39:30.005Z,69.67
2022-10-17T03:41:56.609Z,69.50
2022-10-17T03:44:23.137Z,69.09
2022-10-17T03:46:49.803Z,70.05
2022-10-17T03:49:16.384Z,69.97
2022-10-17T03:51:42.986Z,68.90
2022-10-17T03:54:10.963Z,68.85
2022-10-17T03:56:37.771Z,68.90
2022-10-17T03:59:04.371Z,68.89
2022-10-17T04:01:31.414Z,69.33
2022-10-17T04:03:58.152Z,69.03
2022-10-17T04:06:24.841Z,69.54
2022-10-17T04:08:51.355Z,68.83
2022-10-17T04:11:22.687Z,68.88
2022-10-17T04:13:55.444Z,68.78
2022-10-17T04:16:22.743Z,68.90
2022-10-17T04:18:53.372Z,69.15
2022-10-17T04:21:20.020Z,69.25
2022-10-17T04:23:46.699Z,68.71
2022-10-17T04:26:13.208Z,68.60
2022-10-17T04:28:43.851Z,69.79
2022-10-17T04:31:14.060Z,68.46
2022-10-17T04:33:42.628Z,68.88
2022-10-17T04:36:12.244Z,69.26
2022-10-17T04:38:38.978Z,68.68
2022-10-17T04:41:07.280Z,68.54
2022-10-17T04:43:36.625Z,68.33
2022-10-17T04:46:08.536Z,68.66
2022-10-17T04:48:37.932Z,68.50
2022-10-17T04:51:07.945Z,67.98
2022-10-17T04:53:36.618Z,68.40
2022-10-17T04:56:08.945Z,68.23
2022-10-17T04:58:36.953Z,68.44
2022-10-17T05:01:11.514Z,68.33
2022-10-17T05:03:39.085Z,68.01
2022-10-17T05:06:08.811Z,67.99
2022-10-17T05:08:36.120Z,68.21
2022-10-17T05:11:03.292Z,68.36
2022-10-17T05:13:30.367Z,68.04
2022-10-17T05:16:00.173Z,67.99
2022-10-17T05:18:28.712Z,68.27
2022-10-17T05:20:55.794Z,67.08
2022-10-17T05:23:22.373Z,67.07
2022-10-17T05:25:55.450Z,66.75
2022-10-17T05:28:22.402Z,67.37
2022-10-17T05:30:56.898Z,67.35
2022-10-17T05:33:24.287Z,67.55
2022-10-17T05:35:52.905Z,66.90
2022-10-17T05:38:19.650Z,67.13
2022-10-17T05:40:48.092Z,67.14
2022-10-17T05:43:15.422Z,67.39
2022-10-17T05:45:42.446Z,66.89
2022-10-17T05:48:09.096Z,66.94
2022-10-17T05:50:36.016Z,66.89
2022-10-17T05:53:06.302Z,66.80
2022-10-17T05:55:33.117Z,67.03
2022-10-17T05:58:00.465Z,66.22
2022-10-17T06:00:30.395Z,66.70
2022-10-17T06:02:58.023Z,66.72
2022-10-17T06:05:25.684Z,66.71
2022-10-17T06:07:52.313Z,66.32
2022-10-17T06:10:20.393Z,66.89
2022-10-17T06:12:48.349Z,66.44
2022-10-17T06:15:14.961Z,67.23
2022-10-17T06:17:41.535Z,66.57
2022-10-17T06:20:09.913Z,66.27
2022-10-17T06:22:36.589Z,65.87
2022-10-17T06:25:04.930Z,65.23
2022-10-17T06:27:35.281Z,64.96
2022-10-17T06:30:02.903Z,64.78
2022-10-17T06:32:29.868Z,65.24
2022-10-17T06:34:56.678Z,64.59
2022-10-17T06:37:23.608Z,64.62
2022-10-17T06:39:50.590Z,65.01
2022-10-17T06:42:17.317Z,64.46
2022-10-17T06:44:46.855Z,64.27
2022-10-17T06:47:15.378Z,64.74
2022-10-17T06:49:44.411Z,64.31
2022-10-17T06:52:11.039Z,63.62
2022-10-17T06:54:38.025Z,63.37
2022-10-17T06:57:04.661Z,63.32
2022-10-17T06:59:32.812Z,62.76
2022-10-17T07:02:02.760Z,62.55
2022-10-17T07:04:29.663Z,61.74
2022-10-17T07:06:56.433Z,62.09
2022-10-17T07:09:23.236Z,62.00
2022-10-17T07:11:50.101Z,61.67
2022-10-17T07:14:16.798Z,61.05
2022-10-17T07:16:43.741Z,60.63
2022-10-17T07:19:11.841Z,60.19
2022-10-17T07:21:39.356Z,59.54
2022-10-17T07:24:06.546Z,58.26
2022-10-17T07:26:33.482Z,58.47
2022-10-17T07:29:00.627Z,58.52
2022-10-17T07:31:27.337Z,58.89
2022-10-17T07:33:53.998Z,58.64
2022-10-17T07:36:23.688Z,58.83
2022-10-17T07:38:50.274Z,58.39
2022-10-17T07:41:19.478Z,58.51
2022-10-17T07:43:48.913Z,58.09
2022-10-17T07:46:15.832Z,57.61
2022-10-17T07:48:42.618Z,57.60
2022-10-17T07:51:09.736Z,57.03
2022-10-17T07:53:39.800Z,57.22
2022-10-17T07:56:09.549Z,56.39
2022-10-17T07:58:37.453Z,55.69
2022-10-17T08:01:07.443Z,55.96
2022-10-17T08:03:36.296Z,55.32
2022-10-17T08:06:03.583Z,54.95
2022-10-17T08:08:30.581Z,55.63
2022-10-17T08:11:02.857Z,55.24
2022-10-17T08:13:29.413Z,54.09
2022-10-17T08:16:00.214Z,54.27
2022-10-17T08:18:26.765Z,54.06
2022-10-17T08:20:56.756Z,53.72
2022-10-17T08:23:26.283Z,53.33
2022-10-17T08:25:53.934Z,53.07
2022-10-17T08:28:22.197Z,52.44
2022-10-17T08:30:48.880Z,52.12
2022-10-17T08:33:15.738Z,52.18
2022-10-17T08:35:43.119Z,51.07
2022-10-17T08:38:12.303Z,50.53
2022-10-17T08:40:40.364Z,49.44
2022-10-17T08:43:30.338Z,51.10
2022-10-17T08:46:02.019Z,50.83
2022-10-17T08:48:32.822Z,51.52
2022-10-17T08:51:03.156Z,51.01
2022-10-17T08:53:33.685Z,51.34
2022-10-17T08:56:07.209Z,51.89
2022-10-17T08:58:38.756Z,52.74
2022-10-17T09:01:13.777Z,52.99
2022-10-17T09:04:01.675Z,53.04
2022-10-17T09:06:33.101Z,52.97
2022-10-17T09:09:23.010Z,51.77
2022-10-17T09:12:02.693Z,51.22
2022-10-17T09:15:03.332Z,50.34
2022-10-17T09:17:39.530Z,50.22
2022-10-17T09:20:11.634Z,50.58
2022-10-17T09:22:44.773Z,50.64
2022-10-17T09:25:14.172Z,50.50
2022-10-17T09:27:44.541Z,49.57
2022-10-17T09:30:44.651Z,49.80
2022-10-17T09:33:23.341Z,49.02
2022-10-17T09:36:02.550Z,49.11
2022-10-17T09:38:39.703Z,48.14
2022-10-17T09:41:39.377Z,48.30
2022-10-17T09:44:13.813Z,48.47
2022-10-17T09:46:51.886Z,48.87
2022-10-17T09:49:26.096Z,49.15
2022-10-17T09:51:54.014Z,49.86
2022-10-17T09:54:25.004Z,51.51
2022-10-17T09:57:02.265Z,51.45
2022-10-17T09:59:32.321Z,51.24
2022-10-17T10:02:14.854Z,52.10
2022-10-17T10:05:03.659Z,52.28
2022-10-17T10:07:33.197Z,53.26
2022-10-17T10:10:00.703Z,52.30
2022-10-17T10:12:29.217Z,52.43
2022-10-17T10:14:57.132Z,52.43
2022-10-17T10:17:36.154Z,52.38
2022-10-17T10:20:24.789Z,52.00
2022-10-17T10:23:07.072Z,51.97
2022-10-17T10:25:35.489Z,52.01
2022-10-17T10:28:11.283Z,51.55
2022-10-17T10:30:39.940Z,51.72
2022-10-17T10:33:12.251Z,51.50
2022-10-17T10:35:39.405Z,51.42
2022-10-17T10:38:11.017Z,50.88
2022-10-17T10:40:45.949Z,50.94
2022-10-17T10:43:23.112Z,51.05
2022-10-17T10:45:51.815Z,50.92
2022-10-17T10:48:26.011Z,50.25
2022-10-17T10:50:57.946Z,50.62
2022-10-17T10:53:38.879Z,51.23
2022-10-17T10:56:12.741Z,51.06
2022-10-17T10:58:51.727Z,51.22
2022-10-17T11:01:26.936Z,51.01
2022-10-17T11:04:06.132Z,50.61
2022-10-17T11:06:38.137Z,50.85
2022-10-17T11:09:19.821Z,50.59
2022-10-17T11:11:53.699Z,49.98
2022-10-17T11:14:28.511Z,50.30
2022-10-17T11:17:03.279Z,50.90
2022-10-17T11:19:37.143Z,51.21
2022-10-17T11:22:14.628Z,52.19
2022-10-17T11:24:49.320Z,51.54
2022-10-17T11:27:17.365Z,52.09
2022-10-17T11:29:47.916Z,51.90
2022-10-17T11:32:22.023Z,51.33
2022-10-17T11:34:52.988Z,50.98
2022-10-17T11:37:23.564Z,50.80
2022-10-17T11:39:55.045Z,52.11
2022-10-17T11:42:26.292Z,52.25
2022-10-17T11:45:00.438Z,52.40
2022-10-17T11:47:36.295Z,53.00
2022-10-17T11:53:09.322Z,52.18
2022-10-17T11:55:37.055Z,51.87
2022-10-17T11:58:22.747Z,52.19
2022-10-17T12:00:57.044Z,52.76
2022-10-17T12:03:45.508Z,52.65
2022-10-17T12:06:22.923Z,52.90
2022-10-17T12:08:58.622Z,52.43
2022-10-17T12:11:36.234Z,52.82
2022-10-17T12:14:05.880Z,52.69
2022-10-17T12:16:45.092Z,53.00
2022-10-17T12:19:23.800Z,53.20
2022-10-17T12:21:57.505Z,53.34
2022-10-17T12:24:34.844Z,53.23
2022-10-17T12:27:36.977Z,53.26
2022-10-17T12:30:14.303Z,53.54
2022-10-17T12:33:07.491Z,53.37
2022-10-17T12:35:36.548Z,53.52
2022-10-17T12:38:24.655Z,53.46
2022-10-17T12:41:02.221Z,53.45
2022-10-17T12:43:56.778Z,55.23
2022-10-17T12:46:58.002Z,55.38
2022-10-17T12:49:43.670Z,55.35
2022-10-17T12:55:20.749Z,55.43
2022-10-17T12:57:51.701Z,55.27
2022-10-17T13:00:23.821Z,55.64
2022-10-17T13:02:54.480Z,55.95
2022-10-17T13:05:27.691Z,56.30
2022-10-17T13:07:57.876Z,56.34
2022-10-17T13:10:29.949Z,56.80
2022-10-17T13:13:04.867Z,56.92
2022-10-17T13:15:32.529Z,56.82
2022-10-17T13:18:01.304Z,56.82
2022-10-17T13:20:31.718Z,56.89
2022-10-17T13:22:58.873Z,56.55
2022-10-17T13:25:27.949Z,56.75
2022-10-17T13:28:09.440Z,56.62
2022-10-17T13:30:36.699Z,56.69
2022-10-17T13:33:19.082Z,56.92
2022-10-17T13:35:59.850Z,57.74
2022-10-17T13:38:30.333Z,57.80
2022-10-17T13:41:16.870Z,57.71
2022-10-17T13:43:50.532Z,57.44
2022-10-17T13:46:37.346Z,57.86
2022-10-17T13:49:11.620Z,58.19
2022-10-17T13:51:43.466Z,57.77
2022-10-17T13:54:18.545Z,58.13
2022-10-17T13:56:46.816Z,58.21
2022-10-17T13:59:22.908Z,58.32
2022-10-17T14:01:49.964Z,57.80
2022-10-17T14:04:20.253Z,57.42
2022-10-17T14:06:51.204Z,57.30
2022-10-17T14:09:25.208Z,57.03
2022-10-17T14:12:02.238Z,57.11
2022-10-17T14:14:32.162Z,56.39
2022-10-17T14:17:14.529Z,56.89
2022-10-17T14:19:41.525Z,56.33
2022-10-17T14:22:25.046Z,55.96
2022-10-17T14:24:51.928Z,56.77
2022-10-17T14:27:31.943Z,56.94
2022-10-17T14:30:00.917Z,57.00
2022-10-17T14:32:29.412Z,56.83
2022-10-17T14:35:10.588Z,57.12
2022-10-17T14:37:47.203Z,56.90
2022-10-17T14:40:23.844Z,57.25
2022-10-17T14:42:56.633Z,57.33
2022-10-17T14:45:27.310Z,56.99
2022-10-17T14:47:57.767Z,56.99
2022-10-17T14:50:26.150Z,57.03
2022-10-17T14:53:00.828Z,56.58
2022-10-17T14:55:29.406Z,56.98
2022-10-17T14:57:58.331Z,55.90
2022-10-17T15:00:25.871Z,56.43
2022-10-17T15:02:54.957Z,55.98
2022-10-17T15:05:22.350Z,56.17
2022-10-17T15:07:49.427Z,55.87
2022-10-17T15:10:25.308Z,55.58
2022-10-17T15:12:57.467Z,55.56
2022-10-17T15:15:28.786Z,56.49
2022-10-17T15:17:55.687Z,56.51
2022-10-17T15:20:23.945Z,56.32
2022-10-17T15:22:50.823Z,57.03
2022-10-17T15:25:18.250Z,56.80
2022-10-17T15:27:45.679Z,57.61
2022-10-17T15:30:21.460Z,57.60
2022-10-17T15:32:50.682Z,58.21
2022-10-17T15:35:18.219Z,58.70
2022-10-17T15:37:45.363Z,59.30
2022-10-17T15:40:16.007Z,60.12
2022-10-17T15:42:42.556Z,59.72
2022-10-17T15:45:10.437Z,60.25
2022-10-17T15:47:37.754Z,60.43
2022-10-17T15:50:07.040Z,60.59
2022-10-17T15:52:33.904Z,61.70
2022-10-17T15:55:04.158Z,61.78
2022-10-17T15:57:36.178Z,61.11
2022-10-17T16:00:04.688Z,61.84
2022-10-17T16:02:32.412Z,62.36
2022-10-17T16:04:59.368Z,62.41
2022-10-17T16:07:27.503Z,62.31
2022-10-17T16:09:54.253Z,63.03
2022-10-17T16:12:27.714Z,63.13
2022-10-17T16:14:55.638Z,63.49
2022-10-17T16:17:23.859Z,63.31
2022-10-17T16:19:50.896Z,63.78
2022-10-17T16:22:23.697Z,63.79
2022-10-17T16:24:51.738Z,63.90
2022-10-17T16:27:18.355Z,64.20
2022-10-17T16:29:45.016Z,64.80
2022-10-17T16:32:12.057Z,65.22
2022-10-17T16:34:38.553Z,64.97
2022-10-17T16:37:05.246Z,65.04
2022-10-17T16:39:32.826Z,65.18
2022-10-17T16:42:00.780Z,66.05
2022-10-17T16:44:28.080Z,66.58
2022-10-17T16:46:55.294Z,65.83
2022-10-17T16:49:22.153Z,66.37
2022-10-17T16:51:48.736Z,65.77
2022-10-17T16:54:15.351Z,66.00
2022-10-17T16:56:41.886Z,66.62
2022-10-17T16:59:11.213Z,66.86
2022-10-17T17:01:39.222Z,66.77
2022-10-17T17:04:06.044Z,66.57
2022-10-17T17:06:33.220Z,66.43
2022-10-17T17:08:59.976Z,66.33
2022-10-17T17:11:28.603Z,67.01
2022-10-17T17:13:56.291Z,67.32
2022-10-17T17:16:26.406Z,67.65
2022-10-17T17:18:56.215Z,67.91
2022-10-17T17:21:23.246Z,67.28
2022-10-17T17:23:49.944Z,67.44
2022-10-17T17:26:18.596Z,67.75
2022-10-17T17:28:45.681Z,67.67
2022-10-17T17:31:14.190Z,67.28
2022-10-17T17:33:50.760Z,67.34
2022-10-17T17:36:19.402Z,67.31
2022-10-17T17:38:49.126Z,68.04
2022-10-17T17:41:17.352Z,67.73
2022-10-17T17:43:44.941Z,67.78
2022-10-17T17:46:14.838Z,67.93
2022-10-17T17:48:44.049Z,68.63
2022-10-17T17:51:14.376Z,69.01
2022-10-17T17:53:42.879Z,68.26
2022-10-17T17:56:13.164Z,68.36
2022-10-17T17:58:40.637Z,68.18
2022-10-17T18:01:12.223Z,68.06
2022-10-17T18:03:44.625Z,68.69
2022-10-17T18:06:11.761Z,67.81
2022-10-17T18:08:39.817Z,68.38
2022-10-17T18:11:06.425Z,68.08
2022-10-17T18:13:32.965Z,68.31
2022-10-17T18:16:02.071Z,68.24
2022-10-17T18:18:30.128Z,68.50
2022-10-17T18:21:02.400Z,68.64
2022-10-17T18:23:28.952Z,68.61
2022-10-17T18:26:00.514Z,68.70
2022-10-17T18:28:27.330Z,69.06
2022-10-17T18:30:54.372Z,68.84
2022-10-17T18:33:21.242Z,68.93
2022-10-17T18:35:47.912Z,68.84
2022-10-17T18:38:16.155Z,68.55
2022-10-17T18:40:45.032Z,68.11
2022-10-17T18:43:14.187Z,67.42
2022-10-17T18:46:23.566Z,67.31
2022-10-17T18:48:50.676Z,67.03
2022-10-17T18:51:19.272Z,66.90
2022-10-17T18:53:49.072Z,67.32
2022-10-17T18:56:17.178Z,67.37
2022-10-17T18:58:44.319Z,67.43
2022-10-17T19:01:14.880Z,67.37
2022-10-17T19:03:42.876Z,67.41
2022-10-17T19:06:11.328Z,67.59
2022-10-17T19:08:39.399Z,67.64
2022-10-17T19:11:09.363Z,67.73
2022-10-17T19:13:36.976Z,67.53
2022-10-17T19:16:05.751Z,67.37
2022-10-17T19:18:33.748Z,67.63
2022-10-17T19:21:02.147Z,67.55
2022-10-17T19:23:29.152Z,67.65
2022-10-17T19:25:58.369Z,67.70
2022-10-17T19:28:28.398Z,67.34
2022-10-17T19:30:55.527Z,67.72
2022-10-17T19:33:22.306Z,67.65
2022-10-17T19:35:56.127Z,67.79
2022-10-17T19:38:25.571Z,67.49
2022-10-17T19:40:52.959Z,67.59
2022-10-17T19:43:20.757Z,67.86
2022-10-17T19:45:55.949Z,67.61
2022-10-17T19:48:25.007Z,67.58
2022-10-17T19:50:52.814Z,67.56
2022-10-17T19:53:19.719Z,67.80
2022-10-17T19:55:46.276Z,67.73
2022-10-17T19:58:12.969Z,68.12
2022-10-17T20:00:46.335Z,68.03
2022-10-17T20:03:14.583Z,67.20
2022-10-17T20:05:41.134Z,67.41
2022-10-17T20:08:07.889Z,67.08
2022-10-17T20:10:34.596Z,67.35
2022-10-17T20:13:04.614Z,66.81
2022-10-17T20:15:31.182Z,66.97
2022-10-17T20:17:58.401Z,67.07
2022-10-17T20:20:26.975Z,67.23
2022-10-17T20:22:55.511Z,67.11
2022-10-17T20:25:22.564Z,67.01
2022-10-17T20:27:49.170Z,67.08
2022-10-17T20:30:16.044Z,67.35
2022-10-17T20:32:43.516Z,66.89
2022-10-17T20:35:10.230Z,67.16
2022-10-17T20:37:41.681Z,67.26
2022-10-17T20:40:33.619Z,67.28
2022-10-17T20:42:58.497Z,67.31
2022-10-17T20:45:37.604Z,67.48
2022-10-17T20:48:16.059Z,66.81
2022-10-17T20:50:43.823Z,67.05
2022-10-17T20:56:02.802Z,66.66
2022-10-17T20:58:29.458Z,66.80
2022-10-17T21:00:56.027Z,67.06
2022-10-17T21:03:22.557Z,67.14
2022-10-17T21:05:51.867Z,67.29
2022-10-17T21:08:19.985Z,67.53
2022-10-17T21:10:46.510Z,67.39
2022-10-17T21:13:13.447Z,67.43
2022-10-17T21:15:40.036Z,67.88
2022-10-17T21:18:07.102Z,67.54
2022-10-17T21:20:33.726Z,68.15
2022-10-17T21:23:00.352Z,68.00
2022-10-17T21:25:28.716Z,67.93
2022-10-17T21:27:55.316Z,67.99
2022-10-17T21:30:21.911Z,67.59
2022-10-17T21:32:52.537Z,67.89
2022-10-17T21:35:19.322Z,67.51
2022-10-17T21:37:46.052Z,67.72
2022-10-17T21:40:14.176Z,67.74
2022-10-17T21:42:42.196Z,67.08
2022-10-17T21:45:15.730Z,67.49
2022-10-17T21:48:11.209Z,67.24
2022-10-17T21:50:33.651Z,67.49
2022-10-17T21:53:00.194Z,67.33
2022-10-17T21:55:26.964Z,67.40
2022-10-17T21:57:54.946Z,67.69
2022-10-17T22:00:21.785Z,67.37
2022-10-17T22:02:48.407Z,67.96
2022-10-17T22:05:15.931Z,68.02
2022-10-17T22:07:42.519Z,67.94
2022-10-17T22:10:09.654Z,67.78
2022-10-17T22:12:36.529Z,67.82
2022-10-17T22:15:05.628Z,67.87
2022-10-17T22:17:32.823Z,67.60
2022-10-17T22:20:00.088Z,67.12
2022-10-17T22:22:26.625Z,67.24
2022-10-17T22:24:53.392Z,67.56
2022-10-17T22:27:20.467Z,67.73
2022-10-17T22:29:47.168Z,67.75
2022-10-17T22:32:19.983Z,67.37
2022-10-17T22:34:49.102Z,67.59
2022-10-17T22:37:18.294Z,67.61
2022-10-17T22:39:44.798Z,67.51
2022-10-17T22:42:12.738Z,67.59
2022-10-17T22:44:40.607Z,67.23
2022-10-17T22:47:07.409Z,67.26
2022-10-17T22:49:35.431Z,66.96
2022-10-17T22:52:03.536Z,66.88
2022-10-17T22:54:30.086Z,66.87
2022-10-17T22:56:56.691Z,67.15
2022-10-17T22:59:23.628Z,67.18
2022-10-17T23:01:50.341Z,67.32
2022-10-17T23:04:17.209Z,67.41
2022-10-17T23:06:45.624Z,67.52
2022-10-17T23:09:12.628Z,66.97
2022-10-17T23:11:39.266Z,66.82
2022-10-17T23:14:06.071Z,66.97
2022-10-17T23:16:32.612Z,66.95
2022-10-17T23:18:59.191Z,67.06
2022-10-17T23:21:26.128Z,67.02
2022-10-17T23:23:54.317Z,66.82
2022-10-17T23:26:20.822Z,66.82
2022-10-17T23:28:48.178Z,66.63
2022-10-17T23:31:16.250Z,66.77
2022-10-17T23:33:43.996Z,67.06
2022-10-17T23:36:12.031Z,67.11
2022-10-17T23:38:39.335Z,66.92
2022-10-17T23:41:09.563Z,66.69
2022-10-17T23:43:36.567Z,67.30
2022-10-17T23:46:04.762Z,67.11
2022-10-17T23:48:31.673Z,67.00
2022-10-17T23:50:58.789Z,66.99
2022-10-17T23:53:26.160Z,67.37
2022-10-17T23:55:52.941Z,67.07
2022-10-17T23:58:22.967Z,67.01
